sensor_id;sensor_type;location;lat;lon;timestamp;pressure;altitude;pressure_sealevel;temperature;humidity
43217;BME280;60511;42.686;23.300;2023-04-23T00:01:25;94635.97;;;23.84;30.64
43217;BME280;60511;42.686;23.300;2023-04-23T00:03:27;94659.59;;;24.07;30.44
43217;BME280;60511;42.686;23.300;2023-04-23T00:05:31;94557.66;;;23.33;30.70
43217;BME280;60511;42.686;23.300;2023-04-23T00:07:33;94648.13;;;23.94;30.94
43217;BME280;60511;42.686;23.300;2023-04-23T00:09:34;94661.50;;;24.06;30.68
43217;BME280;60511;42.686;23.300;2023-04-23T00:11:35;94657.94;;;24.02;30.74
43217;BME280;60511;42.686;23.300;2023-04-23T00:13:36;94639.56;;;23.92;30.69
43217;BME280;60511;42.686;23.300;2023-04-23T00:15:37;94649.69;;;23.95;30.68
43217;BME280;60511;42.686;23.300;2023-04-23T00:17:38;94657.25;;;24.05;30.69
43217;BME280;60511;42.686;23.300;2023-04-23T00:19:38;94661.06;;;24.04;30.37
43217;BME280;60511;42.686;23.300;2023-04-23T00:21:38;94619.91;;;23.76;30.76
43217;BME280;60511;42.686;23.300;2023-04-23T00:23:40;94650.03;;;23.94;30.55
43217;BME280;60511;42.686;23.300;2023-04-23T00:25:41;94635.88;;;23.81;30.62
43217;BME280;60511;42.686;23.300;2023-04-23T00:27:41;94646.13;;;23.91;30.58
43217;BME280;60511;42.686;23.300;2023-04-23T00:29:41;94663.34;;;24.02;30.46
43217;BME280;60511;42.686;23.300;2023-04-23T00:31:42;94612.53;;;23.73;30.27
43217;BME280;60511;42.686;23.300;2023-04-23T00:33:42;94653.75;;;24.05;30.71
43217;BME280;60511;42.686;23.300;2023-04-23T00:35:43;94655.31;;;24.06;30.59
43217;BME280;60511;42.686;23.300;2023-04-23T00:37:43;94628.72;;;23.89;30.80
43217;BME280;60511;42.686;23.300;2023-04-23T00:39:44;94634.16;;;23.92;30.70
43217;BME280;60511;42.686;23.300;2023-04-23T00:41:44;94655.97;;;23.99;30.49
43217;BME280;60511;42.686;23.300;2023-04-23T00:43:45;94649.34;;;23.97;30.39
43217;BME280;60511;42.686;23.300;2023-04-23T00:45:46;94656.31;;;23.98;30.61
43217;BME280;60511;42.686;23.300;2023-04-23T00:47:48;94652.47;;;23.99;30.60
43217;BME280;60511;42.686;23.300;2023-04-23T00:49:49;94620.72;;;23.76;30.57
43217;BME280;60511;42.686;23.300;2023-04-23T00:51:50;94639.03;;;23.83;30.63
43217;BME280;60511;42.686;23.300;2023-04-23T00:53:51;94641.84;;;23.90;30.42
43217;BME280;60511;42.686;23.300;2023-04-23T00:55:52;94568.88;;;23.35;30.39
43217;BME280;60511;42.686;23.300;2023-04-23T00:57:52;94653.38;;;23.87;30.43
43217;BME280;60511;42.686;23.300;2023-04-23T00:59:54;94626.47;;;23.75;30.53
43217;BME280;60511;42.686;23.300;2023-04-23T01:01:57;94637.63;;;23.73;30.48
43217;BME280;60511;42.686;23.300;2023-04-23T01:03:58;94650.59;;;23.83;30.63
43217;BME280;60511;42.686;23.300;2023-04-23T01:05:59;94664.72;;;23.93;30.44
43217;BME280;60511;42.686;23.300;2023-04-23T01:08:01;94648.31;;;23.85;30.49
43217;BME280;60511;42.686;23.300;2023-04-23T01:10:03;94626.56;;;23.78;30.39
43217;BME280;60511;42.686;23.300;2023-04-23T01:12:04;94557.59;;;23.30;30.33
43217;BME280;60511;42.686;23.300;2023-04-23T01:14:07;94578.56;;;23.36;30.44
43217;BME280;60511;42.686;23.300;2023-04-23T01:16:08;94656.88;;;23.88;30.41
43217;BME280;60511;42.686;23.300;2023-04-23T01:18:09;94654.50;;;23.86;30.51
43217;BME280;60511;42.686;23.300;2023-04-23T01:20:10;94645.84;;;23.77;30.27
43217;BME280;60511;42.686;23.300;2023-04-23T01:22:12;94643.56;;;23.79;30.48
43217;BME280;60511;42.686;23.300;2023-04-23T01:24:13;94620.84;;;23.64;30.29
43217;BME280;60511;42.686;23.300;2023-04-23T01:26:13;94649.06;;;23.82;30.47
43217;BME280;60511;42.686;23.300;2023-04-23T01:28:14;94657.16;;;23.82;30.52
43217;BME280;60511;42.686;23.300;2023-04-23T01:30:15;94558.75;;;23.13;30.54
43217;BME280;60511;42.686;23.300;2023-04-23T01:32:16;94657.84;;;23.79;31.03
43217;BME280;60511;42.686;23.300;2023-04-23T01:34:16;94601.53;;;23.46;30.83
43217;BME280;60511;42.686;23.300;2023-04-23T01:36:18;94623.16;;;23.65;30.75
43217;BME280;60511;42.686;23.300;2023-04-23T01:38:18;94625.78;;;23.62;30.87
43217;BME280;60511;42.686;23.300;2023-04-23T01:40:21;94622.94;;;23.55;31.18
43217;BME280;60511;42.686;23.300;2023-04-23T01:42:22;94542.31;;;23.02;30.78
43217;BME280;60511;42.686;23.300;2023-04-23T01:44:22;94655.03;;;23.76;30.91
43217;BME280;60511;42.686;23.300;2023-04-23T01:46:23;94662.56;;;23.82;30.92
43217;BME280;60511;42.686;23.300;2023-04-23T01:48:24;94661.00;;;23.81;31.01
43217;BME280;60511;42.686;23.300;2023-04-23T01:50:25;94663.69;;;23.81;30.66
43217;BME280;60511;42.686;23.300;2023-04-23T01:52:26;94667.47;;;23.77;31.14
43217;BME280;60511;42.686;23.300;2023-04-23T01:54:27;94650.19;;;23.65;30.76
43217;BME280;60511;42.686;23.300;2023-04-23T01:56:27;94574.34;;;23.19;30.96
43217;BME280;60511;42.686;23.300;2023-04-23T01:58:29;94645.28;;;23.71;31.12
43217;BME280;60511;42.686;23.300;2023-04-23T02:00:30;94660.44;;;23.76;30.82
43217;BME280;60511;42.686;23.300;2023-04-23T02:02:30;94647.56;;;23.69;31.03
43217;BME280;60511;42.686;23.300;2023-04-23T02:04:31;94604.50;;;23.41;31.03
43217;BME280;60511;42.686;23.300;2023-04-23T02:06:33;94669.53;;;23.83;30.73
43217;BME280;60511;42.686;23.300;2023-04-23T02:08:34;94643.16;;;23.61;31.07
43217;BME280;60511;42.686;23.300;2023-04-23T02:10:35;94677.56;;;23.80;31.16
43217;BME280;60511;42.686;23.300;2023-04-23T02:12:36;94674.84;;;23.80;31.06
43217;BME280;60511;42.686;23.300;2023-04-23T02:14:37;94676.00;;;23.79;30.89
43217;BME280;60511;42.686;23.300;2023-04-23T02:16:37;94643.22;;;23.64;31.13
43217;BME280;60511;42.686;23.300;2023-04-23T02:18:38;94675.22;;;23.78;30.86
43217;BME280;60511;42.686;23.300;2023-04-23T02:20:39;94654.47;;;23.66;30.86
43217;BME280;60511;42.686;23.300;2023-04-23T02:22:41;94674.06;;;23.79;30.60
43217;BME280;60511;42.686;23.300;2023-04-23T02:24:41;94659.97;;;23.70;30.60
43217;BME280;60511;42.686;23.300;2023-04-23T02:26:43;94658.38;;;23.69;31.11
43217;BME280;60511;42.686;23.300;2023-04-23T02:28:44;94674.50;;;23.81;30.48
43217;BME280;60511;42.686;23.300;2023-04-23T02:30:45;94654.19;;;23.72;30.61
43217;BME280;60511;42.686;23.300;2023-04-23T02:32:47;94629.03;;;23.52;31.05
43217;BME280;60511;42.686;23.300;2023-04-23T02:34:47;94654.91;;;23.69;31.25
43217;BME280;60511;42.686;23.300;2023-04-23T02:36:47;94675.66;;;23.80;30.75
43217;BME280;60511;42.686;23.300;2023-04-23T02:38:48;94630.19;;;23.51;31.22
43217;BME280;60511;42.686;23.300;2023-04-23T02:40:50;94582.38;;;23.16;30.70
43217;BME280;60511;42.686;23.300;2023-04-23T02:42:50;94656.44;;;23.70;30.69
43217;BME280;60511;42.686;23.300;2023-04-23T02:44:51;94668.56;;;23.76;30.47
43217;BME280;60511;42.686;23.300;2023-04-23T02:46:51;94663.88;;;23.73;30.80
43217;BME280;60511;42.686;23.300;2023-04-23T02:48:52;94675.22;;;23.78;30.68
43217;BME280;60511;42.686;23.300;2023-04-23T02:50:52;94644.28;;;23.60;30.49
43217;BME280;60511;42.686;23.300;2023-04-23T02:52:53;94662.28;;;23.72;30.77
43217;BME280;60511;42.686;23.300;2023-04-23T02:54:53;94676.78;;;23.79;30.47
43217;BME280;60511;42.686;23.300;2023-04-23T02:56:53;94655.97;;;23.64;30.88
43217;BME280;60511;42.686;23.300;2023-04-23T02:58:54;94632.13;;;23.50;30.60
43217;BME280;60511;42.686;23.300;2023-04-23T03:00:55;94605.13;;;23.34;30.25
43217;BME280;60511;42.686;23.300;2023-04-23T03:02:55;94679.47;;;23.79;30.54
43217;BME280;60511;42.686;23.300;2023-04-23T03:04:56;94669.34;;;23.76;30.58
43217;BME280;60511;42.686;23.300;2023-04-23T03:06:56;94669.72;;;23.75;30.58
43217;BME280;60511;42.686;23.300;2023-04-23T03:08:57;94679.56;;;23.83;30.78
43217;BME280;60511;42.686;23.300;2023-04-23T03:10:57;94659.09;;;23.66;30.45
43217;BME280;60511;42.686;23.300;2023-04-23T03:12:58;94682.59;;;23.81;30.47
43217;BME280;60511;42.686;23.300;2023-04-23T03:14:58;94664.06;;;23.64;30.54
43217;BME280;60511;42.686;23.300;2023-04-23T03:16:59;94675.47;;;23.73;30.78
43217;BME280;60511;42.686;23.300;2023-04-23T03:19:00;94670.41;;;23.72;30.63
43217;BME280;60511;42.686;23.300;2023-04-23T03:21:00;94638.66;;;23.49;30.79
43217;BME280;60511;42.686;23.300;2023-04-23T03:23:02;94683.75;;;23.80;30.42
43217;BME280;60511;42.686;23.300;2023-04-23T03:25:05;94600.97;;;23.21;30.83
43217;BME280;60511;42.686;23.300;2023-04-23T03:27:06;94680.44;;;23.71;30.67
43217;BME280;60511;42.686;23.300;2023-04-23T03:29:06;94692.66;;;23.81;30.68
43217;BME280;60511;42.686;23.300;2023-04-23T03:31:07;94682.06;;;23.76;30.88
43217;BME280;60511;42.686;23.300;2023-04-23T03:33:07;94678.88;;;23.70;30.65
43217;BME280;60511;42.686;23.300;2023-04-23T03:35:08;94668.34;;;23.65;30.62
43217;BME280;60511;42.686;23.300;2023-04-23T03:37:09;94676.94;;;23.71;30.58
43217;BME280;60511;42.686;23.300;2023-04-23T03:39:10;94691.66;;;23.73;30.72
43217;BME280;60511;42.686;23.300;2023-04-23T03:41:11;94631.94;;;23.43;30.71
43217;BME280;60511;42.686;23.300;2023-04-23T03:43:12;94696.03;;;23.78;30.87
43217;BME280;60511;42.686;23.300;2023-04-23T03:45:14;94697.97;;;23.77;31.05
43217;BME280;60511;42.686;23.300;2023-04-23T03:47:15;94685.84;;;23.71;30.85
43217;BME280;60511;42.686;23.300;2023-04-23T03:49:16;94694.13;;;23.78;30.54
43217;BME280;60511;42.686;23.300;2023-04-23T03:51:16;94689.75;;;23.74;30.71
43217;BME280;60511;42.686;23.300;2023-04-23T03:53:18;94661.97;;;23.57;30.94
43217;BME280;60511;42.686;23.300;2023-04-23T03:55:18;94695.25;;;23.77;30.74
43217;BME280;60511;42.686;23.300;2023-04-23T03:57:20;94705.28;;;23.77;30.76
43217;BME280;60511;42.686;23.300;2023-04-23T03:59:22;94699.09;;;23.76;30.82
43217;BME280;60511;42.686;23.300;2023-04-23T04:01:22;94630.06;;;23.27;30.62
43217;BME280;60511;42.686;23.300;2023-04-23T04:03:23;94706.94;;;23.81;31.43
43217;BME280;60511;42.686;23.300;2023-04-23T04:05:24;94705.00;;;23.82;30.83
43217;BME280;60511;42.686;23.300;2023-04-23T04:07:24;94707.72;;;23.82;30.68
43217;BME280;60511;42.686;23.300;2023-04-23T04:09:26;94659.91;;;23.51;30.70
43217;BME280;60511;42.686;23.300;2023-04-23T04:11:28;94679.13;;;23.65;30.55
43217;BME280;60511;42.686;23.300;2023-04-23T04:13:28;94676.34;;;23.61;30.75
43217;BME280;60511;42.686;23.300;2023-04-23T04:15:28;94653.66;;;23.46;30.40
43217;BME280;60511;42.686;23.300;2023-04-23T04:17:29;94708.50;;;23.82;30.76
43217;BME280;60511;42.686;23.300;2023-04-23T04:19:30;94690.47;;;23.71;30.66
43217;BME280;60511;42.686;23.300;2023-04-23T04:21:30;94711.66;;;23.84;30.39
43217;BME280;60511;42.686;23.300;2023-04-23T04:23:32;94695.53;;;23.72;30.69
43217;BME280;60511;42.686;23.300;2023-04-23T04:25:34;94687.25;;;23.65;30.67
43217;BME280;60511;42.686;23.300;2023-04-23T04:27:38;94698.13;;;23.69;30.61
43217;BME280;60511;42.686;23.300;2023-04-23T04:29:40;94717.47;;;23.86;30.88
43217;BME280;60511;42.686;23.300;2023-04-23T04:31:41;94724.44;;;23.88;31.13
43217;BME280;60511;42.686;23.300;2023-04-23T04:33:41;94697.00;;;23.70;30.60
43217;BME280;60511;42.686;23.300;2023-04-23T04:35:42;94722.16;;;23.90;30.84
43217;BME280;60511;42.686;23.300;2023-04-23T04:37:44;94715.47;;;23.83;30.98
43217;BME280;60511;42.686;23.300;2023-04-23T04:39:45;94724.88;;;23.90;31.10
43217;BME280;60511;42.686;23.300;2023-04-23T04:41:46;94726.03;;;23.89;30.89
43217;BME280;60511;42.686;23.300;2023-04-23T04:43:47;94731.88;;;23.91;30.93
43217;BME280;60511;42.686;23.300;2023-04-23T04:45:48;94730.28;;;23.90;30.69
43217;BME280;60511;42.686;23.300;2023-04-23T04:47:48;94729.94;;;23.91;30.71
43217;BME280;60511;42.686;23.300;2023-04-23T04:49:49;94718.94;;;23.84;30.65
43217;BME280;60511;42.686;23.300;2023-04-23T04:51:49;94729.94;;;23.91;30.69
43217;BME280;60511;42.686;23.300;2023-04-23T04:53:50;94698.91;;;23.69;30.69
43217;BME280;60511;42.686;23.300;2023-04-23T04:55:50;94741.53;;;23.92;30.96
43217;BME280;60511;42.686;23.300;2023-04-23T04:57:52;94711.91;;;23.79;30.65
43217;BME280;60511;42.686;23.300;2023-04-23T04:59:52;94736.19;;;23.95;30.57
43217;BME280;60511;42.686;23.300;2023-04-23T05:01:53;94700.13;;;23.72;30.55
43217;BME280;60511;42.686;23.300;2023-04-23T05:03:58;94703.63;;;23.72;30.39
43217;BME280;60511;42.686;23.300;2023-04-23T05:05:58;94733.84;;;23.94;30.87
43217;BME280;60511;42.686;23.300;2023-04-23T05:07:59;94726.38;;;23.87;31.24
43217;BME280;60511;42.686;23.300;2023-04-23T05:10:01;94700.13;;;23.72;30.43
43217;BME280;60511;42.686;23.300;2023-04-23T05:12:01;94703.25;;;23.74;30.35
43217;BME280;60511;42.686;23.300;2023-04-23T05:14:02;94722.94;;;23.90;30.67
43217;BME280;60511;42.686;23.300;2023-04-23T05:16:03;94734.28;;;23.96;30.63
43217;BME280;60511;42.686;23.300;2023-04-23T05:18:05;94728.72;;;23.89;30.71
43217;BME280;60511;42.686;23.300;2023-04-23T05:20:06;94695.44;;;23.69;30.43
43217;BME280;60511;42.686;23.300;2023-04-23T05:22:09;94716.63;;;23.82;30.47
43217;BME280;60511;42.686;23.300;2023-04-23T05:24:10;94713.13;;;23.82;30.61
43217;BME280;60511;42.686;23.300;2023-04-23T05:26:10;94737.41;;;23.98;30.51
43217;BME280;60511;42.686;23.300;2023-04-23T05:28:11;94726.88;;;23.93;30.46
43217;BME280;60511;42.686;23.300;2023-04-23T05:30:11;94708.44;;;23.79;30.38
43217;BME280;60511;42.686;23.300;2023-04-23T05:32:12;94718.19;;;23.83;30.98
43217;BME280;60511;42.686;23.300;2023-04-23T05:34:12;94738.91;;;23.95;30.47
43217;BME280;60511;42.686;23.300;2023-04-23T05:36:12;94737.75;;;23.96;30.59
43217;BME280;60511;42.686;23.300;2023-04-23T05:38:13;94668.00;;;23.51;30.46
43217;BME280;60511;42.686;23.300;2023-04-23T05:40:13;94724.34;;;23.84;30.73
43217;BME280;60511;42.686;23.300;2023-04-23T05:42:14;94735.56;;;24.02;30.33
43217;BME280;60511;42.686;23.300;2023-04-23T05:44:14;94723.19;;;24.01;30.61
43217;BME280;60511;42.686;23.300;2023-04-23T05:46:15;94723.88;;;23.98;30.28
43217;BME280;60511;42.686;23.300;2023-04-23T05:48:15;94675.38;;;23.70;30.69
43217;BME280;60511;42.686;23.300;2023-04-23T05:50:17;94752.09;;;24.16;30.66
43217;BME280;60511;42.686;23.300;2023-04-23T05:52:17;94751.41;;;24.19;30.54
43217;BME280;60511;42.686;23.300;2023-04-23T05:54:18;94724.53;;;23.91;30.22
43217;BME280;60511;42.686;23.300;2023-04-23T05:56:18;94680.72;;;23.66;30.34
43217;BME280;60511;42.686;23.300;2023-04-23T05:58:19;94755.88;;;24.12;30.43
43217;BME280;60511;42.686;23.300;2023-04-23T06:00:19;94760.13;;;24.13;30.14
43217;BME280;60511;42.686;23.300;2023-04-23T06:02:20;94757.41;;;24.13;30.14
43217;BME280;60511;42.686;23.300;2023-04-23T06:04:21;94740.28;;;24.05;30.10
43217;BME280;60511;42.686;23.300;2023-04-23T06:06:21;94758.56;;;24.12;30.28
43217;BME280;60511;42.686;23.300;2023-04-23T06:08:21;94753.16;;;24.12;30.10
43217;BME280;60511;42.686;23.300;2023-04-23T06:10:22;94757.41;;;24.13;29.99
43217;BME280;60511;42.686;23.300;2023-04-23T06:12:22;94753.94;;;24.12;30.03
43217;BME280;60511;42.686;23.300;2023-04-23T06:14:23;94751.22;;;24.12;30.03
43217;BME280;60511;42.686;23.300;2023-04-23T06:16:24;94749.59;;;24.08;30.04
43217;BME280;60511;42.686;23.300;2023-04-23T06:18:24;94754.28;;;24.11;30.22
43217;BME280;60511;42.686;23.300;2023-04-23T06:20:25;94745.25;;;24.03;30.03
43217;BME280;60511;42.686;23.300;2023-04-23T06:22:25;94735.47;;;23.98;30.12
43217;BME280;60511;42.686;23.300;2023-04-23T06:24:26;94754.66;;;24.09;30.09
43217;BME280;60511;42.686;23.300;2023-04-23T06:26:26;94746.47;;;24.05;30.05
43217;BME280;60511;42.686;23.300;2023-04-23T06:28:27;94755.44;;;24.10;30.04
43217;BME280;60511;42.686;23.300;2023-04-23T06:30:27;94752.72;;;24.10;30.02
43217;BME280;60511;42.686;23.300;2023-04-23T06:32:28;94752.72;;;24.10;30.09
43217;BME280;60511;42.686;23.300;2023-04-23T06:34:28;94744.97;;;24.08;30.00
43217;BME280;60511;42.686;23.300;2023-04-23T06:36:29;94683.69;;;23.61;29.94
43217;BME280;60511;42.686;23.300;2023-04-23T06:38:29;94744.88;;;24.04;29.79
43217;BME280;60511;42.686;23.300;2023-04-23T06:40:30;94731.13;;;23.94;29.89
43217;BME280;60511;42.686;23.300;2023-04-23T06:42:30;94731.88;;;23.91;30.02
43217;BME280;60511;42.686;23.300;2023-04-23T06:44:31;94716.34;;;23.88;29.94
43217;BME280;60511;42.686;23.300;2023-04-23T06:46:31;94750.66;;;24.03;29.81
43217;BME280;60511;42.686;23.300;2023-04-23T06:48:32;94701.34;;;23.74;30.00
43217;BME280;60511;42.686;23.300;2023-04-23T06:50:32;94755.44;;;24.10;29.90
43217;BME280;60511;42.686;23.300;2023-04-23T06:52:33;94737.41;;;23.98;29.94
43217;BME280;60511;42.686;23.300;2023-04-23T06:54:33;94746.16;;;24.11;30.01
43217;BME280;60511;42.686;23.300;2023-04-23T06:56:34;94750.81;;;24.10;29.80
43217;BME280;60511;42.686;23.300;2023-04-23T06:58:34;94719.13;;;23.91;30.13
43217;BME280;60511;42.686;23.300;2023-04-23T07:00:35;94751.97;;;24.09;29.89
43217;BME280;60511;42.686;23.300;2023-04-23T07:02:36;94748.88;;;24.11;29.83
43217;BME280;60511;42.686;23.300;2023-04-23T07:04:36;94749.69;;;24.11;29.93
43217;BME280;60511;42.686;23.300;2023-04-23T07:06:37;94740.34;;;24.09;29.94
43217;BME280;60511;42.686;23.300;2023-04-23T07:08:37;94719.13;;;23.91;29.83
43217;BME280;60511;42.686;23.300;2023-04-23T07:10:39;94749.69;;;24.11;30.13
43217;BME280;60511;42.686;23.300;2023-04-23T07:12:39;94750.03;;;24.10;29.99
43217;BME280;60511;42.686;23.300;2023-04-23T07:14:40;94734.78;;;24.01;29.91
43217;BME280;60511;42.686;23.300;2023-04-23T07:16:40;94749.31;;;24.13;30.00
43217;BME280;60511;42.686;23.300;2023-04-23T07:18:41;94750.09;;;24.13;29.87
43217;BME280;60511;42.686;23.300;2023-04-23T07:20:41;94708.56;;;23.86;29.98
43217;BME280;60511;42.686;23.300;2023-04-23T07:22:42;94728.22;;;24.02;29.93
43217;BME280;60511;42.686;23.300;2023-04-23T07:24:42;94745.47;;;24.14;30.14
43217;BME280;60511;42.686;23.300;2023-04-23T07:26:44;94718.47;;;23.98;30.04
43217;BME280;60511;42.686;23.300;2023-04-23T07:28:44;94742.78;;;24.14;30.00
43217;BME280;60511;42.686;23.300;2023-04-23T07:30:49;94730.66;;;24.08;29.98
43217;BME280;60511;42.686;23.300;2023-04-23T07:32:50;94736.94;;;24.12;29.91
43217;BME280;60511;42.686;23.300;2023-04-23T07:34:51;94740.50;;;24.16;30.11
43217;BME280;60511;42.686;23.300;2023-04-23T07:36:52;94738.91;;;24.15;29.91
43217;BME280;60511;42.686;23.300;2023-04-23T07:38:52;94738.16;;;24.14;30.05
43217;BME280;60511;42.686;23.300;2023-04-23T07:40:53;94743.56;;;24.14;30.09
43217;BME280;60511;42.686;23.300;2023-04-23T07:42:54;94741.28;;;24.16;29.93
43217;BME280;60511;42.686;23.300;2023-04-23T07:44:54;94730.75;;;24.11;29.95
43217;BME280;60511;42.686;23.300;2023-04-23T07:46:55;94713.84;;;23.98;30.13
43217;BME280;60511;42.686;23.300;2023-04-23T07:48:55;94742.06;;;24.17;29.86
43217;BME280;60511;42.686;23.300;2023-04-23T07:50:56;94707.31;;;23.99;29.85
43217;BME280;60511;42.686;23.300;2023-04-23T07:52:56;94731.19;;;24.13;30.14
43217;BME280;60511;42.686;23.300;2023-04-23T07:54:57;94732.03;;;24.17;30.00
43217;BME280;60511;42.686;23.300;2023-04-23T07:56:57;94726.13;;;24.12;29.89
43217;BME280;60511;42.686;23.300;2023-04-23T07:58:59;94717.50;;;24.06;30.14
43217;BME280;60511;42.686;23.300;2023-04-23T08:01:01;94720.19;;;24.06;30.11
43217;BME280;60511;42.686;23.300;2023-04-23T08:03:01;94737.88;;;24.19;29.98
43217;BME280;60511;42.686;23.300;2023-04-23T08:05:02;94734.78;;;24.21;30.11
43217;BME280;60511;42.686;23.300;2023-04-23T08:07:02;94719.13;;;24.11;30.09
43217;BME280;60511;42.686;23.300;2023-04-23T08:09:03;94706.91;;;23.97;30.02
43217;BME280;60511;42.686;23.300;2023-04-23T08:11:06;94740.19;;;24.21;30.04
43217;BME280;60511;42.686;23.300;2023-04-23T08:13:07;94736.38;;;24.22;30.02
43217;BME280;60511;42.686;23.300;2023-04-23T08:15:08;94711.66;;;24.04;30.23
43217;BME280;60511;42.686;23.300;2023-04-23T08:17:09;94722.44;;;24.20;29.97
43217;BME280;60511;42.686;23.300;2023-04-23T08:19:09;94732.09;;;24.21;30.13
43217;BME280;60511;42.686;23.300;2023-04-23T08:21:10;94727.31;;;24.14;29.94
43217;BME280;60511;42.686;23.300;2023-04-23T08:23:12;94726.69;;;24.21;29.93
43217;BME280;60511;42.686;23.300;2023-04-23T08:25:12;94730.25;;;24.25;30.09
43217;BME280;60511;42.686;23.300;2023-04-23T08:27:13;94714.22;;;24.16;30.06
43217;BME280;60511;42.686;23.300;2023-04-23T08:29:13;94543.53;;;23.04;29.87
43217;BME280;60511;42.686;23.300;2023-04-23T08:31:14;94686.13;;;24.01;29.96
43217;BME280;60511;42.686;23.300;2023-04-23T08:33:15;94724.41;;;24.23;30.17
43217;BME280;60511;42.686;23.300;2023-04-23T08:35:15;94717.09;;;24.23;30.07
43217;BME280;60511;42.686;23.300;2023-04-23T08:37:16;94545.88;;;23.06;30.02
43217;BME280;60511;42.686;23.300;2023-04-23T08:39:16;94680.38;;;24.03;29.89
43217;BME280;60511;42.686;23.300;2023-04-23T08:41:17;94718.66;;;24.24;29.95
43217;BME280;60511;42.686;23.300;2023-04-23T08:43:18;94700.94;;;24.08;30.01
43217;BME280;60511;42.686;23.300;2023-04-23T08:45:20;94710.88;;;24.23;30.16
43217;BME280;60511;42.686;23.300;2023-04-23T08:47:23;94704.34;;;24.24;30.05
43217;BME280;60511;42.686;23.300;2023-04-23T08:49:24;94704.69;;;24.22;29.82
43217;BME280;60511;42.686;23.300;2023-04-23T08:51:31;94629.28;;;23.78;29.84
43217;BME280;60511;42.686;23.300;2023-04-23T08:53:37;94590.97;;;23.57;30.04
43217;BME280;60511;42.686;23.300;2023-04-23T08:55:38;94677.09;;;24.13;30.19
43217;BME280;60511;42.686;23.300;2023-04-23T08:57:39;94690.91;;;24.27;30.06
43217;BME280;60511;42.686;23.300;2023-04-23T08:59:41;94672.38;;;24.10;30.12
43217;BME280;60511;42.686;23.300;2023-04-23T09:01:42;94689.53;;;24.18;29.93
43217;BME280;60511;42.686;23.300;2023-04-23T09:03:43;94671.19;;;24.08;30.04
43217;BME280;60511;42.686;23.300;2023-04-23T09:05:44;94648.63;;;24.00;29.78
43217;BME280;60511;42.686;23.300;2023-04-23T09:07:44;94699.06;;;24.31;29.93
43217;BME280;60511;42.686;23.300;2023-04-23T09:09:47;94694.47;;;24.32;29.85
43217;BME280;60511;42.686;23.300;2023-04-23T09:11:48;94690.19;;;24.31;29.79
43217;BME280;60511;42.686;23.300;2023-04-23T09:13:49;94666.63;;;24.12;29.91
43217;BME280;60511;42.686;23.300;2023-04-23T09:15:50;94673.66;;;24.16;30.10
43217;BME280;60511;42.686;23.300;2023-04-23T09:17:50;94695.59;;;24.31;30.08
43217;BME280;60511;42.686;23.300;2023-04-23T09:19:52;94678.09;;;24.24;30.14
43217;BME280;60511;42.686;23.300;2023-04-23T09:21:54;94687.47;;;24.31;29.94
43217;BME280;60511;42.686;23.300;2023-04-23T09:23:54;94692.53;;;24.32;29.99
43217;BME280;60511;42.686;23.300;2023-04-23T09:25:55;94687.91;;;24.33;30.04
43217;BME280;60511;42.686;23.300;2023-04-23T09:27:57;94685.97;;;24.33;29.98
43217;BME280;60511;42.686;23.300;2023-04-23T09:29:59;94663.19;;;24.15;30.00
43217;BME280;60511;42.686;23.300;2023-04-23T09:32:08;94662.34;;;24.11;30.00
43217;BME280;60511;42.686;23.300;2023-04-23T09:34:09;94677.84;;;24.33;29.97
43217;BME280;60511;42.686;23.300;2023-04-23T09:36:10;94655.50;;;24.17;29.86
43217;BME280;60511;42.686;23.300;2023-04-23T09:38:13;94677.84;;;24.33;29.92
43217;BME280;60511;42.686;23.300;2023-04-23T09:40:21;94685.19;;;24.33;29.99
43217;BME280;60511;42.686;23.300;2023-04-23T09:42:26;94663.47;;;24.29;30.15
43217;BME280;60511;42.686;23.300;2023-04-23T09:44:31;94646.28;;;24.18;30.04
43217;BME280;60511;42.686;23.300;2023-04-23T09:46:42;94667.03;;;24.33;30.00
43217;BME280;60511;42.686;23.300;2023-04-23T09:48:43;94624.56;;;24.14;30.04
43217;BME280;60511;42.686;23.300;2023-04-23T09:50:43;94633.88;;;24.17;30.03
43217;BME280;60511;42.686;23.300;2023-04-23T09:52:44;94662.06;;;24.35;30.04
43217;BME280;60511;42.686;23.300;2023-04-23T09:54:44;94629.69;;;24.19;29.82
43217;BME280;60511;42.686;23.300;2023-04-23T09:56:50;94657.88;;;24.38;29.88
43217;BME280;60511;42.686;23.300;2023-04-23T09:58:51;94648.94;;;24.37;29.92
43217;BME280;60511;42.686;23.300;2023-04-23T10:00:51;94655.94;;;24.38;29.77
43217;BME280;60511;42.686;23.300;2023-04-23T10:02:52;94650.44;;;24.35;29.97
43217;BME280;60511;42.686;23.300;2023-04-23T10:04:52;94648.94;;;24.37;29.90
43217;BME280;60511;42.686;23.300;2023-04-23T10:07:03;94615.44;;;24.22;29.79
43217;BME280;60511;42.686;23.300;2023-04-23T10:09:06;94639.72;;;24.38;30.09
43217;BME280;60511;42.686;23.300;2023-04-23T10:11:07;94640.56;;;24.42;29.86
43217;BME280;60511;42.686;23.300;2023-04-23T10:13:09;94638.63;;;24.43;29.97
43217;BME280;60511;42.686;23.300;2023-04-23T10:15:10;94618.56;;;24.24;29.98
43217;BME280;60511;42.686;23.300;2023-04-23T10:17:11;94635.56;;;24.44;29.96
43217;BME280;60511;42.686;23.300;2023-04-23T10:19:13;94636.34;;;24.45;30.01
43217;BME280;60511;42.686;23.300;2023-04-23T10:21:17;94631.72;;;24.45;29.99
43217;BME280;60511;42.686;23.300;2023-04-23T10:23:19;94520.38;;;23.78;29.85
43217;BME280;60511;42.686;23.300;2023-04-23T10:25:22;94627.88;;;24.46;29.79
43217;BME280;60511;42.686;23.300;2023-04-23T10:27:28;94610.72;;;24.39;29.97
43217;BME280;60511;42.686;23.300;2023-04-23T10:29:30;94543.91;;;23.97;29.85
43217;BME280;60511;42.686;23.300;2023-04-23T10:31:31;94580.72;;;24.24;29.87
43217;BME280;60511;42.686;23.300;2023-04-23T10:33:33;94610.13;;;24.49;29.89